createdAt,value
2023-04-02T00:01:43.835Z,3.88
2023-04-02T00:04:19.030Z,1.63
2023-04-02T00:06:45.505Z,2.15
2023-04-02T00:09:14.969Z,2.50
2023-04-02T00:11:44.762Z,1.45
2023-04-02T00:14:27.501Z,2.45
2023-04-02T00:16:55.770Z,2.60
2023-04-02T00:19:33.686Z,2.22
2023-04-02T00:22:02.093Z,1.70
2023-04-02T00:24:28.607Z,2.25
2023-04-02T00:26:55.788Z,2.78
2023-04-02T00:29:22.333Z,1.40
2023-04-02T00:31:51.623Z,1.48
2023-04-02T00:34:25.826Z,1.58
2023-04-02T00:36:52.562Z,1.30
2023-04-02T00:39:27.893Z,1.20
2023-04-02T00:41:56.368Z,1.23
2023-04-02T00:44:22.954Z,2.10
2023-04-02T00:46:51.058Z,0.77
2023-04-02T00:49:23.434Z,1.25
2023-04-02T00:51:55.156Z,1.90
2023-04-02T00:54:25.278Z,1.50
2023-04-02T00:56:57.120Z,1.25
2023-04-02T00:59:30.902Z,2.38
2023-04-02T01:04:58.950Z,1.40
2023-04-02T01:07:49.926Z,2.88
2023-04-02T01:11:04.052Z,1.38
2023-04-02T01:13:42.229Z,2.85
2023-04-02T01:16:31.025Z,2.85
2023-04-02T01:19:32.293Z,3.22
2023-04-02T01:22:25.822Z,2.47
2023-04-02T01:24:56.404Z,3.55
2023-04-02T01:27:29.826Z,4.95
2023-04-02T01:29:58.941Z,7.47
2023-04-02T01:32:29.211Z,8.77
2023-04-02T01:34:57.180Z,8.40
2023-04-02T01:37:35.475Z,6.45
2023-04-02T01:40:20.395Z,8.52
2023-04-02T01:43:25.674Z,9.43
2023-04-02T01:45:52.447Z,15.57
2023-04-02T01:48:22.841Z,13.90
2023-04-02T01:50:51.692Z,16.40
2023-04-02T01:53:21.036Z,14.88
2023-04-02T01:55:53.561Z,15.05
2023-04-02T01:58:24.661Z,13.85
2023-04-02T02:01:04.719Z,14.15
2023-04-02T02:05:58.496Z,17.27
2023-04-02T02:08:32.760Z,21.25
2023-04-02T02:10:59.332Z,29.88
2023-04-02T02:13:25.873Z,25.27
2023-04-02T02:15:52.485Z,25.90
2023-04-02T02:18:23.147Z,17.38
2023-04-02T02:20:52.007Z,19.73
2023-04-02T02:23:22.684Z,13.88
2023-04-02T02:25:49.357Z,12.18
2023-04-02T02:28:21.286Z,12.40
2023-04-02T02:31:02.660Z,11.93
2023-04-02T02:33:37.136Z,10.43
2023-04-02T02:36:16.613Z,11.02
2023-04-02T02:39:07.047Z,11.63
2023-04-02T02:41:41.291Z,11.20
2023-04-02T02:44:10.463Z,10.95
2023-04-02T02:46:46.489Z,11.60
2023-04-02T02:49:18.077Z,10.95
2023-04-02T02:51:48.143Z,12.13
2023-04-02T02:54:17.327Z,13.70
2023-04-02T02:56:50.540Z,13.68
2023-04-02T02:59:18.706Z,11.65
2023-04-02T03:01:46.962Z,12.10
2023-04-02T03:04:19.099Z,13.00
2023-04-02T03:06:48.901Z,11.70
2023-04-02T03:09:37.304Z,10.98
2023-04-02T03:12:29.610Z,12.25
2023-04-02T03:15:23.758Z,15.40
2023-04-02T03:18:06.656Z,15.85
2023-04-02T03:20:44.426Z,12.75
2023-04-02T03:23:22.985Z,14.68
2023-04-02T03:26:01.405Z,14.57
2023-04-02T03:28:32.568Z,17.05
2023-04-02T03:31:06.593Z,17.90
2023-04-02T03:33:40.715Z,17.38
2023-04-02T03:36:19.251Z,17.13
2023-04-02T03:38:52.323Z,16.92
2023-04-02T03:41:25.977Z,18.45
2023-04-02T03:44:00.056Z,17.42
2023-04-02T03:46:44.659Z,22.63
2023-04-02T03:49:19.226Z,18.42
2023-04-02T03:52:04.818Z,19.45
2023-04-02T03:54:31.678Z,18.65
2023-04-02T03:56:59.360Z,17.80
2023-04-02T03:59:38.581Z,20.90
2023-04-02T04:02:45.426Z,23.38
2023-04-02T04:05:23.163Z,18.52
2023-04-02T04:07:53.659Z,24.40
2023-04-02T04:10:25.998Z,27.08
2023-04-02T04:12:56.488Z,25.17
2023-04-02T04:15:27.412Z,24.85
2023-04-02T04:17:53.926Z,22.25
2023-04-02T04:20:25.943Z,19.40
2023-04-02T04:22:52.607Z,17.13
2023-04-02T04:25:28.274Z,17.25
2023-04-02T04:28:15.893Z,16.42
2023-04-02T04:31:03.784Z,18.20
2023-04-02T04:33:40.477Z,16.15
2023-04-02T04:36:21.161Z,15.70
2023-04-02T04:38:51.077Z,18.75
2023-04-02T04:41:23.873Z,22.75
2023-04-02T04:44:11.738Z,22.20
2023-04-02T04:46:45.147Z,23.38
2023-04-02T04:49:18.273Z,21.38
2023-04-02T04:52:08.948Z,18.95
2023-04-02T04:54:39.026Z,22.15
2023-04-02T04:57:17.640Z,27.08
2023-04-02T04:59:58.586Z,27.58
2023-04-02T05:02:32.245Z,37.15
2023-04-02T05:05:00.631Z,30.20
2023-04-02T05:07:32.626Z,33.72
2023-04-02T05:10:03.472Z,31.73
2023-04-02T05:12:51.218Z,37.63
2023-04-02T05:15:29.347Z,36.90
2023-04-02T05:18:23.073Z,34.95
2023-04-02T05:21:13.916Z,37.42
2023-04-02T05:23:49.726Z,41.63
2023-04-02T05:26:21.846Z,40.60
2023-04-02T05:29:00.747Z,37.75
2023-04-02T05:31:49.242Z,35.50
2023-04-02T05:34:25.478Z,44.67
2023-04-02T05:36:51.974Z,41.08
2023-04-02T05:39:22.945Z,26.02
2023-04-02T05:42:00.726Z,18.98
2023-04-02T05:44:30.989Z,26.88
2023-04-02T05:47:05.522Z,37.53
2023-04-02T05:49:50.076Z,35.78
2023-04-02T05:52:27.421Z,22.52
2023-04-02T05:55:06.317Z,24.00
2023-04-02T05:57:46.817Z,20.75
2023-04-02T06:00:23.610Z,12.48
2023-04-02T06:03:02.236Z,8.70
2023-04-02T06:05:36.825Z,6.55
2023-04-02T06:08:10.781Z,5.35
2023-04-02T06:10:53.553Z,6.25
2023-04-02T06:13:20.431Z,8.18
2023-04-02T06:18:27.200Z,7.53
2023-04-02T06:20:54.672Z,8.60
2023-04-02T06:23:47.152Z,7.30
2023-04-02T06:26:22.747Z,6.35
2023-04-02T06:28:56.142Z,1.98
2023-04-02T06:31:34.461Z,4.82
2023-04-02T06:34:01.116Z,5.65
2023-04-02T06:36:28.069Z,39.95
2023-04-02T06:41:25.281Z,3.58
2023-04-02T06:44:07.187Z,1.33
2023-04-02T06:46:45.584Z,2.05
2023-04-02T06:49:28.428Z,1.73
2023-04-02T06:51:56.347Z,1.08
2023-04-02T06:54:22.930Z,1.20
2023-04-02T06:56:54.561Z,1.48
2023-04-02T06:59:21.108Z,5.72
2023-04-02T07:02:27.133Z,8.68
2023-04-02T07:05:01.970Z,1.92
2023-04-02T07:07:28.515Z,1.15
2023-04-02T07:09:54.995Z,1.85
2023-04-02T07:12:25.201Z,1.73
2023-04-02T07:14:52.390Z,1.33
2023-04-02T07:17:19.661Z,1.65
2023-04-02T07:19:47.089Z,2.72
2023-04-02T07:22:13.514Z,2.85
2023-04-02T07:24:39.950Z,3.35
2023-04-02T07:27:06.469Z,2.33
2023-04-02T07:29:32.906Z,2.00
2023-04-02T07:31:59.340Z,2.58
2023-04-02T07:34:25.795Z,3.40
2023-04-02T07:36:52.314Z,2.00
2023-04-02T07:39:18.746Z,26.42
2023-04-02T07:42:00.190Z,2.90
2023-04-02T07:44:27.287Z,13.43
2023-04-02T07:46:54.133Z,1.67
2023-04-02T07:49:21.162Z,3.38
2023-04-02T07:51:47.620Z,3.42
2023-04-02T07:54:14.104Z,2.63
2023-04-02T07:56:40.571Z,2.42
2023-04-02T07:59:07.079Z,1.80
2023-04-02T08:01:33.515Z,1.50
2023-04-02T08:04:00.034Z,2.38
2023-04-02T08:08:53.090Z,1.50
2023-04-02T08:13:46.691Z,0.70
2023-04-02T08:16:13.455Z,1.08
2023-04-02T08:18:40.269Z,14.88
2023-04-02T08:21:09.061Z,7.47
2023-04-02T08:23:36.244Z,2.95
2023-04-02T08:26:03.406Z,2.25
2023-04-02T08:28:29.985Z,2.13
2023-04-02T08:30:56.532Z,1.55
2023-04-02T08:33:23.106Z,1.20
2023-04-02T08:35:50.725Z,0.73
2023-04-02T08:38:19.131Z,8.10
2023-04-02T08:40:49.137Z,12.90
2023-04-02T08:43:30.802Z,9.38
2023-04-02T08:46:21.725Z,47.15
2023-04-02T08:48:53.915Z,186.68
2023-04-02T08:51:27.664Z,130.95
2023-04-02T08:53:59.809Z,26.20
2023-04-02T08:56:33.531Z,26.40
2023-04-02T08:59:07.393Z,15.82
2023-04-02T09:01:33.836Z,3.42
2023-04-02T09:04:02.127Z,1.35
2023-04-02T09:06:29.446Z,0.80
2023-04-02T09:08:57.509Z,1.90
2023-04-02T09:11:25.279Z,1.33
2023-04-02T09:13:57.759Z,1.50
2023-04-02T09:16:39.324Z,1.10
2023-04-02T09:19:16.290Z,1.33
2023-04-02T09:22:16.359Z,1.52
2023-04-02T09:24:42.862Z,2.22
2023-04-02T09:27:21.977Z,2.53
2023-04-02T09:30:07.535Z,0.82
2023-04-02T09:32:55.970Z,2.30
2023-04-02T09:35:39.116Z,0.95
2023-04-02T09:38:11.717Z,1.73
2023-04-02T09:40:59.474Z,2.10
2023-04-02T09:43:28.825Z,1.65
2023-04-02T09:46:05.579Z,1.83
2023-04-02T09:48:38.322Z,1.15
2023-04-02T09:51:07.102Z,1.80
2023-04-02T09:53:41.866Z,0.95
2023-04-02T09:56:20.450Z,1.08
2023-04-02T09:59:05.344Z,7.50
2023-04-02T10:01:33.209Z,4.72
2023-04-02T10:04:00.238Z,1.50
2023-04-02T10:06:29.373Z,3.78
2023-04-02T10:08:56.062Z,2.53
2023-04-02T10:11:36.403Z,2.30
2023-04-02T10:14:21.525Z,1.73
2023-04-02T10:16:53.891Z,4.35
2023-04-02T10:19:23.125Z,3.60
2023-04-02T10:21:50.358Z,0.73
2023-04-02T10:24:17.330Z,1.65
2023-04-02T10:27:10.033Z,1.63
2023-04-02T10:29:48.387Z,2.22
2023-04-02T10:32:23.687Z,1.52
2023-04-02T10:35:03.508Z,5.25
2023-04-02T10:37:54.030Z,0.80
2023-04-02T10:41:00.536Z,1.65
2023-04-02T10:43:35.990Z,20.45
2023-04-02T10:46:12.421Z,11.70
2023-04-02T10:49:01.600Z,2.10
2023-04-02T10:51:37.177Z,2.67
2023-04-02T10:54:21.127Z,12.57
2023-04-02T10:56:51.391Z,4.15
2023-04-02T10:59:32.143Z,5.60
2023-04-02T11:02:03.854Z,11.30
2023-04-02T11:04:41.084Z,4.00
2023-04-02T11:07:22.625Z,3.35
2023-04-02T11:09:53.627Z,2.28
2023-04-02T11:12:51.607Z,2.10
2023-04-02T11:15:19.836Z,2.88
2023-04-02T11:17:47.164Z,3.38
2023-04-02T11:20:47.616Z,7.15
2023-04-02T11:23:18.487Z,5.53
2023-04-02T11:25:46.440Z,4.22
2023-04-02T11:28:20.008Z,1.45
2023-04-02T11:30:48.752Z,0.88
2023-04-02T11:33:43.088Z,1.77
2023-04-02T11:36:48.661Z,7.43
2023-04-02T11:39:51.659Z,5.28
2023-04-02T11:42:18.046Z,1.50
2023-04-02T11:44:44.969Z,3.70
2023-04-02T11:47:25.454Z,3.58
2023-04-02T11:49:54.762Z,3.00
2023-04-02T11:52:25.486Z,3.42
2023-04-02T11:55:14.661Z,1.63
2023-04-02T11:57:51.391Z,0.98
2023-04-02T12:00:51.504Z,1.15
2023-04-02T12:03:26.921Z,6.10
2023-04-02T12:06:29.574Z,1.88
2023-04-02T12:09:01.739Z,1.58
2023-04-02T12:11:37.774Z,1.35
2023-04-02T12:14:43.427Z,2.83
2023-04-02T12:17:39.512Z,2.22
2023-04-02T12:20:08.810Z,6.47
2023-04-02T12:22:39.048Z,3.58
2023-04-02T12:25:21.417Z,1.48
2023-04-02T12:27:48.545Z,1.17
2023-04-02T12:30:23.240Z,1.05
2023-04-02T12:32:50.323Z,1.42
2023-04-02T12:35:30.693Z,1.83
2023-04-02T12:37:57.173Z,1.20
2023-04-02T12:40:25.214Z,0.82
2023-04-02T12:42:51.765Z,2.35
2023-04-02T12:45:25.240Z,1.67
2023-04-02T12:47:53.159Z,1.95
2023-04-02T12:50:21.133Z,0.95
2023-04-02T12:52:51.076Z,1.15
2023-04-02T12:55:21.679Z,1.73
2023-04-02T12:57:48.312Z,3.03
2023-04-02T13:00:20.504Z,3.05
2023-04-02T13:02:50.648Z,3.40
2023-04-02T13:05:38.152Z,4.03
2023-04-02T13:08:05.072Z,1.42
2023-04-02T13:10:31.820Z,4.18
2023-04-02T13:13:00.704Z,2.30
2023-04-02T13:15:30.561Z,2.20
2023-04-02T13:18:15.449Z,3.33
2023-04-02T13:20:43.289Z,1.40
2023-04-02T13:23:31.134Z,3.25
2023-04-02T13:26:14.258Z,2.53
2023-04-02T13:28:40.730Z,3.30
2023-04-02T13:31:15.344Z,6.53
2023-04-02T13:33:41.863Z,6.60
2023-04-02T13:36:13.875Z,6.85
2023-04-02T13:38:40.743Z,3.17
2023-04-02T13:41:20.327Z,7.50
2023-04-02T13:43:47.107Z,10.82
2023-04-02T13:46:20.101Z,8.25
2023-04-02T13:51:17.880Z,6.18
2023-04-02T13:53:47.120Z,2.85
2023-04-02T13:56:13.589Z,1.92
2023-04-02T13:58:40.107Z,1.67
2023-04-02T14:01:06.646Z,1.85
2023-04-02T14:03:33.187Z,3.35
2023-04-02T14:06:08.929Z,4.97
2023-04-02T14:09:02.986Z,2.47
2023-04-02T14:11:50.300Z,13.80
2023-04-02T14:14:31.991Z,4.45
2023-04-02T14:17:21.215Z,4.25
2023-04-02T14:20:21.005Z,4.15
2023-04-02T14:22:47.414Z,3.92
2023-04-02T14:25:43.005Z,3.75
2023-04-02T14:28:30.693Z,8.13
2023-04-02T14:31:24.732Z,6.40
2023-04-02T14:34:13.691Z,8.38
2023-04-02T14:36:59.563Z,7.22
2023-04-02T14:39:42.612Z,22.20
2023-04-02T14:42:30.226Z,12.52
2023-04-02T14:45:04.988Z,12.90
2023-04-02T14:47:55.895Z,7.05
2023-04-02T14:50:29.484Z,5.88
2023-04-02T14:53:01.829Z,4.43
2023-04-02T14:55:35.704Z,4.75
2023-04-02T14:58:09.649Z,6.97
2023-04-02T15:00:41.710Z,6.10
2023-04-02T15:03:17.922Z,8.13
2023-04-02T15:05:50.076Z,5.30
2023-04-02T15:08:24.412Z,3.05
2023-04-02T15:11:08.936Z,4.82
2023-04-02T15:13:42.951Z,5.35
2023-04-02T15:16:21.234Z,6.07
2023-04-02T15:18:52.894Z,10.93
2023-04-02T15:21:19.291Z,9.70
2023-04-02T15:23:57.882Z,8.93
2023-04-02T15:26:42.500Z,18.38
2023-04-02T15:29:44.563Z,11.18
2023-04-02T15:32:30.172Z,6.05
2023-04-02T15:35:05.621Z,6.10
2023-04-02T15:38:05.735Z,8.20
2023-04-02T15:40:50.604Z,7.57
2023-04-02T15:43:46.118Z,7.55
2023-04-02T15:46:29.966Z,6.13
2023-04-02T15:49:05.411Z,7.63
2023-04-02T15:51:40.931Z,8.43
2023-04-02T15:54:29.809Z,6.93
2023-04-02T15:57:21.797Z,7.95
2023-04-02T15:59:51.068Z,10.73
2023-04-02T16:02:29.637Z,11.02
2023-04-02T16:05:05.387Z,9.25
2023-04-02T16:07:53.161Z,13.43
2023-04-02T16:10:39.984Z,9.93
2023-04-02T16:13:31.898Z,15.90
2023-04-02T16:16:34.895Z,10.75
2023-04-02T16:19:02.438Z,11.80
2023-04-02T16:21:33.088Z,12.60
2023-04-02T16:23:59.705Z,15.20
2023-04-02T16:26:47.300Z,10.63
2023-04-02T16:29:22.398Z,9.30
2023-04-02T16:32:07.434Z,23.15
2023-04-02T16:35:24.780Z,8.82
2023-04-02T16:37:57.966Z,11.32
2023-04-02T16:41:07.058Z,12.05
2023-04-02T16:43:43.932Z,18.63
2023-04-02T16:46:39.083Z,26.15
2023-04-02T16:49:24.322Z,28.50
2023-04-02T16:52:32.323Z,39.42
2023-04-02T16:55:25.993Z,38.78
2023-04-02T16:58:28.670Z,51.08
2023-04-02T17:01:02.032Z,46.70
2023-04-02T17:03:43.625Z,46.17
2023-04-02T17:06:12.975Z,45.08
2023-04-02T17:08:44.126Z,45.03
2023-04-02T17:11:42.762Z,41.45
2023-04-02T17:14:30.902Z,35.85
2023-04-02T17:17:01.423Z,31.75
2023-04-02T17:19:29.708Z,34.88
2023-04-02T17:22:04.703Z,44.13
2023-04-02T17:24:42.639Z,37.33
2023-04-02T17:27:16.749Z,69.53
2023-04-02T17:29:48.353Z,52.13
2023-04-02T17:32:27.884Z,304.13
2023-04-02T17:34:54.529Z,148.70
2023-04-02T17:37:33.134Z,125.97
2023-04-02T17:40:25.180Z,251.23
2023-04-02T17:43:28.044Z,160.82
2023-04-02T17:45:56.854Z,143.00
2023-04-02T17:48:38.821Z,141.80
2023-04-02T17:51:05.212Z,132.73
2023-04-02T17:53:31.592Z,132.15
2023-04-02T17:56:29.682Z,154.93
2023-04-02T17:59:07.186Z,158.68
2023-04-02T18:01:36.602Z,152.48
2023-04-02T18:04:18.062Z,159.48
2023-04-02T18:07:06.013Z,149.65
2023-04-02T18:09:35.162Z,189.55
2023-04-02T18:12:01.810Z,191.35
2023-04-02T18:14:31.111Z,191.70
2023-04-02T18:17:15.752Z,133.82
2023-04-02T18:19:54.045Z,156.40
2023-04-02T18:22:37.889Z,142.07
2023-04-02T18:25:16.666Z,132.75
2023-04-02T18:27:58.215Z,114.72
2023-04-02T18:30:45.924Z,118.70
2023-04-02T18:33:30.922Z,130.55
2023-04-02T18:36:23.417Z,110.55
2023-04-02T18:39:01.991Z,122.30
2023-04-02T18:41:28.387Z,112.13
2023-04-02T18:44:14.827Z,116.00
2023-04-02T18:46:52.084Z,114.45
2023-04-02T18:49:43.429Z,91.25
2023-04-02T18:52:14.173Z,96.18
2023-04-02T18:54:51.422Z,96.93
2023-04-02T18:57:24.157Z,104.47
2023-04-02T19:00:04.754Z,88.45
2023-04-02T19:02:46.325Z,65.70
2023-04-02T19:05:30.776Z,58.75
2023-04-02T19:08:41.840Z,76.85
2023-04-02T19:11:18.566Z,79.20
2023-04-02T19:13:45.088Z,77.10
2023-04-02T19:16:17.438Z,109.72
2023-04-02T19:18:56.982Z,90.90
2023-04-02T19:21:29.265Z,89.53
2023-04-02T19:24:06.425Z,90.55
2023-04-02T19:26:39.854Z,92.18
2023-04-02T19:29:16.677Z,104.03
2023-04-02T19:32:04.711Z,103.10
2023-04-02T19:34:51.619Z,99.45
2023-04-02T19:37:41.126Z,97.70
2023-04-02T19:40:13.736Z,115.00
2023-04-02T19:42:45.070Z,107.72
2023-04-02T19:45:24.325Z,132.35
2023-04-02T19:47:50.904Z,124.72
2023-04-02T19:50:17.499Z,111.88
2023-04-02T19:52:43.946Z,127.78
2023-04-02T19:55:10.437Z,119.25
2023-04-02T19:57:37.011Z,116.65
2023-04-02T20:00:04.184Z,116.20
2023-04-02T20:02:30.689Z,126.63
2023-04-02T20:04:57.162Z,128.35
2023-04-02T20:07:23.644Z,124.28
2023-04-02T20:09:50.088Z,100.47
2023-04-02T20:12:16.531Z,120.00
2023-04-02T20:14:43.138Z,113.30
2023-04-02T20:17:09.580Z,99.65
2023-04-02T20:19:36.008Z,82.80
2023-04-02T20:22:02.505Z,85.32
2023-04-02T20:24:28.987Z,82.13
2023-04-02T20:26:55.444Z,71.32
2023-04-02T20:29:21.909Z,94.75
2023-04-02T20:31:48.394Z,76.85
2023-04-02T20:34:15.212Z,77.60
2023-04-02T20:36:41.753Z,83.90
2023-04-02T20:39:08.190Z,70.10
2023-04-02T20:41:34.772Z,83.95
2023-04-02T20:44:01.257Z,61.40
2023-04-02T20:46:27.752Z,52.78
2023-04-02T20:48:54.240Z,52.65
2023-04-02T20:51:20.877Z,52.97
2023-04-02T20:53:47.359Z,53.05
2023-04-02T20:56:16.427Z,53.35
2023-04-02T20:58:43.985Z,59.33
2023-04-02T21:01:22.389Z,54.85
2023-04-02T21:03:49.979Z,77.85
2023-04-02T21:06:19.140Z,87.15
2023-04-02T21:08:46.247Z,93.22
2023-04-02T21:11:13.227Z,118.65
2023-04-02T21:13:40.388Z,106.10
2023-04-02T21:16:14.318Z,100.88
2023-04-02T21:18:40.779Z,87.47
2023-04-02T21:21:07.296Z,77.22
2023-04-02T21:23:34.325Z,67.05
2023-04-02T21:26:05.747Z,73.13
2023-04-02T21:28:34.389Z,71.70
2023-04-02T21:31:13.183Z,74.82
2023-04-02T21:33:42.283Z,75.38
2023-04-02T21:36:14.674Z,74.50
2023-04-02T21:38:49.416Z,82.63
2023-04-02T21:41:25.413Z,86.88
2023-04-02T21:43:52.622Z,89.07
2023-04-02T21:46:21.776Z,89.32
2023-04-02T21:48:49.699Z,87.55
2023-04-02T21:51:18.599Z,85.50
2023-04-02T21:53:46.080Z,70.30
2023-04-02T21:56:15.135Z,56.30
2023-04-02T21:58:41.646Z,48.47
2023-04-02T22:01:14.072Z,45.30
2023-04-02T22:03:47.449Z,40.95
2023-04-02T22:06:18.758Z,39.83
2023-04-02T22:08:46.830Z,37.80
2023-04-02T22:11:16.756Z,48.72
2023-04-02T22:13:44.753Z,52.00
2023-04-02T22:16:16.549Z,51.80
2023-04-02T22:18:43.969Z,51.70
2023-04-02T22:21:11.628Z,56.08
2023-04-02T22:23:39.287Z,59.58
2023-04-02T22:26:07.234Z,58.20
2023-04-02T22:28:34.504Z,57.95
2023-04-02T22:31:11.375Z,57.55
2023-04-02T22:33:38.388Z,58.45
2023-04-02T22:36:05.308Z,57.05
2023-04-02T22:38:32.352Z,53.10
2023-04-02T22:41:10.002Z,45.35
2023-04-02T22:43:37.159Z,50.83
2023-04-02T22:46:05.845Z,50.78
2023-04-02T22:48:32.994Z,51.25
2023-04-02T22:50:59.466Z,49.78
2023-04-02T22:53:26.014Z,57.15
2023-04-02T22:55:53.122Z,47.13
2023-04-02T22:58:20.828Z,53.17
2023-04-02T23:00:48.371Z,44.33
2023-04-02T23:03:14.887Z,67.13
2023-04-02T23:05:41.350Z,52.95
2023-04-02T23:08:07.913Z,53.35
2023-04-02T23:10:34.425Z,55.25
2023-04-02T23:13:00.976Z,67.32
2023-04-02T23:15:27.437Z,65.00
2023-04-02T23:17:53.927Z,67.60
2023-04-02T23:20:20.468Z,73.78
2023-04-02T23:22:46.970Z,104.65
2023-04-02T23:25:13.412Z,72.00
2023-04-02T23:27:39.873Z,76.90
2023-04-02T23:30:07.151Z,62.78
2023-04-02T23:32:33.684Z,63.75
2023-04-02T23:35:00.200Z,56.55
2023-04-02T23:37:26.657Z,48.08
2023-04-02T23:39:53.068Z,36.63
2023-04-02T23:42:19.584Z,34.83
2023-04-02T23:44:46.022Z,30.58
2023-04-02T23:47:12.537Z,26.08
2023-04-02T23:49:39.108Z,26.55
2023-04-02T23:52:05.632Z,21.63
2023-04-02T23:54:32.108Z,20.40
2023-04-02T23:56:58.574Z,21.38
2023-04-02T23:59:25.030Z,15.80
